Audrey — PD9331 — position and weather

sailwx.info

Track history (hours):
 
Tides and Currents Weather Stations Pressure Air Temp Water Temp Dewpoint Dewpoint Depression Visibility Wind Speed Wind Dir Waves Ship Positions

Audrey

Last reported at 2015-Jan-31 00:10 UTC. Time now 2015-Jan-31 08:36 UTC.
Position N 51°50' E 004°27'.

Length 85 m; draft 2.3 m.

Type: Other ship. MMSI: 244660106.

Date/timePositionNaut miles runAvg speedWind from/ knotsBaromVisibWave heightAir tempDewpointWater temp
2015-Jan-31 00:10N 51°50' E 004°27'4 0.1
2015-Jan-28 23:09N 51°54' E 004°25'11620.0
2015-Jan-28 17:22N 50°53' E 007°03'3 3.7
2015-Jan-28 16:32N 50°54' E 006°59'12 4.0
2015-Jan-28 13:28N 51°06' E 006°53'4 4.2
2015-Jan-28 12:33N 51°10' E 006°50'3 2.5
2015-Jan-28 11:34N 51°11' E 006°47'3 3.2
2015-Jan-28 10:34N 51°14' E 006°44'2 2.0
2015-Jan-28 09:33N 51°16' E 006°43'6 3.8
2015-Jan-28 08:03N 51°21' E 006°40'9 3.5
2015-Jan-28 05:23N 51°30' E 006°43'4 4.4
2015-Jan-28 04:29N 51°34' E 006°41'37 2.6
2015-Jan-27 14:22N 51°52' E 005°50'5 6.3
2015-Jan-27 13:33N 51°54' E 005°42'6 6.2
2015-Jan-27 12:34N 51°54' E 005°32'6 5.6
2015-Jan-27 11:34N 51°50' E 005°24'5 4.8
2015-Jan-27 10:33N 51°49' E 005°17'6 6.2
2015-Jan-27 09:34N 51°49' E 005°07'7 7.0
2015-Jan-27 08:33N 51°50' E 004°55'8 8.2
2015-Jan-27 07:34N 51°49' E 004°42'7 7.4
2015-Jan-27 06:33N 51°50' E 004°30'8 7.9
2015-Jan-27 05:34N 51°52' E 004°18'8 7.8
2015-Jan-27 04:33N 51°56' E 004°07'1 1.0
2015-Jan-27 03:33N 51°57' E 004°07'0 0.0
2015-Jan-27 02:33N 51°57' E 004°07'0 0.0
2015-Jan-27 01:34N 51°57' E 004°07'0 0.0
2015-Jan-27 00:34N 51°57' E 004°07'0 0.0
2015-Jan-26 23:34N 51°57' E 004°07'0 0.0
2015-Jan-26 22:34N 51°57' E 004°07'0 0.2
2015-Jan-26 21:34N 51°57' E 004°07'0 0.0
2015-Jan-26 20:34N 51°57' E 004°07'0 0.0
2015-Jan-26 19:34N 51°57' E 004°07'0 0.0
2015-Jan-26 18:34N 51°57' E 004°07'0 0.0
2015-Jan-26 17:34N 51°57' E 004°07'0 0.0
2015-Jan-26 16:33N 51°57' E 004°07'1 1.2
2015-Jan-26 15:33N 51°56' E 004°08'8 7.6
2015-Jan-26 14:32N 51°53' E 004°20'6 6.5
2015-Jan-26 13:33N 51°55' E 004°29'0 0.0
2015-Jan-26 12:33N 51°55' E 004°29'0 0.0
2015-Jan-26 11:34N 51°55' E 004°29'0 0.0
2015-Jan-26 10:33N 51°55' E 004°29'0 0.0
2015-Jan-26 09:33N 51°55' E 004°29'0 0.0
2015-Jan-26 08:33N 51°55' E 004°29'0 0.0
2015-Jan-26 07:33N 51°55' E 004°29'0 0.0
2015-Jan-26 06:34N 51°55' E 004°29'0 0.0
2015-Jan-26 05:32N 51°55' E 004°29'0 0.0
2015-Jan-26 04:33N 51°55' E 004°29'0 0.0
2015-Jan-26 03:33N 51°55' E 004°29'0 0.0
2015-Jan-26 02:34N 51°55' E 004°29'0 0.0
2015-Jan-26 01:33N 51°55' E 004°29'0 0.0
2015-Jan-26 00:33N 51°55' E 004°29'0 0.0
2015-Jan-25 23:33N 51°55' E 004°29'0 0.0
2015-Jan-25 22:34N 51°55' E 004°29'0 0.0
2015-Jan-25 21:33N 51°55' E 004°29'0 0.0
2015-Jan-25 20:33N 51°55' E 004°29'0 0.0
2015-Jan-25 19:34N 51°55' E 004°29'0 0.0
2015-Jan-25 18:34N 51°55' E 004°29'0 0.0
2015-Jan-25 17:33N 51°55' E 004°29'0 0.0
2015-Jan-25 16:34N 51°55' E 004°29'0 0.0
2015-Jan-25 15:34N 51°55' E 004°29'0 0.0
2015-Jan-25 14:33N 51°55' E 004°29'0 0.0
2015-Jan-25 13:33N 51°55' E 004°29'0 0.0
2015-Jan-25 12:33N 51°55' E 004°29'0 0.0
2015-Jan-25 11:34N 51°55' E 004°29'0 0.0
2015-Jan-25 10:34N 51°55' E 004°29'0 0.0
2015-Jan-25 08:33N 51°55' E 004°29'0 0.0
2015-Jan-25 07:33N 51°55' E 004°29'0 0.0
2015-Jan-25 06:33N 51°55' E 004°29'0 0.0
2015-Jan-25 05:33N 51°55' E 004°29'0 0.0
2015-Jan-25 04:33N 51°55' E 004°29'0 0.0
2015-Jan-25 03:32N 51°55' E 004°29'0 0.0
2015-Jan-25 02:33N 51°55' E 004°29'0 0.0
2015-Jan-25 01:33N 51°55' E 004°29'0 0.0
2015-Jan-25 00:34N 51°55' E 004°29'0 0.0
2015-Jan-24 23:33N 51°55' E 004°29'0 0.0
2015-Jan-24 22:34N 51°55' E 004°29'0 0.0
2015-Jan-24 21:33N 51°55' E 004°29'0 0.0
2015-Jan-24 20:33N 51°55' E 004°29'0 0.0
2015-Jan-24 19:33N 51°55' E 004°29'0 0.0
2015-Jan-24 18:33N 51°55' E 004°29'0 0.0
2015-Jan-24 17:33N 51°55' E 004°29'0 0.0
2015-Jan-24 16:33N 51°55' E 004°29'0 0.0
2015-Jan-24 15:33N 51°55' E 004°29'0 0.0
2015-Jan-24 14:33N 51°55' E 004°29'0 0.0
2015-Jan-24 13:33N 51°55' E 004°29'0 0.0
2015-Jan-24 12:34N 51°55' E 004°29'0 0.0
2015-Jan-24 11:33N 51°55' E 004°29'0 0.0
2015-Jan-24 10:34N 51°55' E 004°29'0 0.0
2015-Jan-24 09:33N 51°55' E 004°29'0 0.0
2015-Jan-24 08:33N 51°55' E 004°29'0 0.0
2015-Jan-24 07:33N 51°55' E 004°29'0 0.0
2015-Jan-24 06:33N 51°55' E 004°29'0 0.0
2015-Jan-24 05:34N 51°55' E 004°29'0 0.0
2015-Jan-24 04:34N 51°55' E 004°29'0 0.0
2015-Jan-24 03:33N 51°55' E 004°29'0 0.0
2015-Jan-24 02:34N 51°55' E 004°29'0 0.0
2015-Jan-24 01:33N 51°55' E 004°29'0 0.0
2015-Jan-24 00:33N 51°55' E 004°29'0 0.0
2015-Jan-23 23:33N 51°55' E 004°29'0 0.0
2015-Jan-23 22:33N 51°55' E 004°29'0 0.0
2015-Jan-23 21:33N 51°55' E 004°29'0 0.0
2015-Jan-23 20:33N 51°55' E 004°29'0 0.0
2015-Jan-23 19:33N 51°55' E 004°29'0 0.0
2015-Jan-23 18:33N 51°55' E 004°29'0 0.0
2015-Jan-23 17:33N 51°55' E 004°29'0 0.0
2015-Jan-23 16:33N 51°55' E 004°29'0 0.0
2015-Jan-23 15:34N 51°55' E 004°29'0 0.0
2015-Jan-23 14:34N 51°55' E 004°29'0 0.0
2015-Jan-23 13:34N 51°55' E 004°29'0 0.0
2015-Jan-23 12:33N 51°55' E 004°29'0 0.0
2015-Jan-23 11:33N 51°55' E 004°29'0 0.0
2015-Jan-23 10:33N 51°55' E 004°29'0 0.0
2015-Jan-23 09:33N 51°55' E 004°29'0 0.0
2015-Jan-23 08:33N 51°55' E 004°29'0 0.0
2015-Jan-23 07:34N 51°55' E 004°29'0 0.0
2015-Jan-23 06:33N 51°55' E 004°29'0 0.0
2015-Jan-23 05:33N 51°55' E 004°29'0 0.0
2015-Jan-23 04:33N 51°55' E 004°29'0 0.0
2015-Jan-23 03:33N 51°55' E 004°29'0 0.0
2015-Jan-23 02:33N 51°55' E 004°29'0 0.0
2015-Jan-23 01:33N 51°55' E 004°29'0 0.0
2015-Jan-23 00:33N 51°55' E 004°29'0 0.0
2015-Jan-22 23:34N 51°55' E 004°29'0 0.0
2015-Jan-22 22:33N 51°55' E 004°29'0 0.0
2015-Jan-22 21:33N 51°55' E 004°29'0 0.0
2015-Jan-22 20:33N 51°55' E 004°29'0 0.0
2015-Jan-22 19:33N 51°55' E 004°29'0 0.0
2015-Jan-22 18:33N 51°55' E 004°29'0 0.0
2015-Jan-22 17:33N 51°55' E 004°29'0 0.0
2015-Jan-22 16:33N 51°55' E 004°29'5 5.2
2015-Jan-22 15:34N 51°53' E 004°37'4 4.4
2015-Jan-22 14:33N 51°49' E 004°40'2 1.9
2015-Jan-22 13:33N 51°48' E 004°37'8 7.9
2015-Jan-22 12:33N 51°43' E 004°48'1110.6
2015-Jan-22 11:33N 51°43' E 005°05'9 8.8
2015-Jan-22 10:33N 51°45' E 005°19'7 6.5
2015-Jan-22 09:33N 51°49' E 005°27'3 3.5
2015-Jan-22 08:32N 51°47' E 005°33'0 0.0
2015-Jan-22 07:33N 51°47' E 005°33'0 0.0
2015-Jan-22 06:33N 51°47' E 005°33'0 0.0
2015-Jan-22 05:33N 51°47' E 005°33'0 0.0
2015-Jan-22 04:33N 51°47' E 005°33'0 0.0
2015-Jan-22 03:33N 51°47' E 005°33'0 0.0
2015-Jan-22 02:33N 51°47' E 005°33'0 0.0
2015-Jan-22 01:33N 51°47' E 005°33'0 0.0
2015-Jan-22 00:33N 51°47' E 005°33'0 0.0
2015-Jan-21 23:33N 51°47' E 005°33'0 0.0
2015-Jan-21 22:50N 51°47' E 005°33'0 0.0
2015-Jan-21 22:46N 51°47' E 005°33'0 0.0
2015-Jan-21 22:33N 51°47' E 005°33'0 0.0
2015-Jan-21 21:33N 51°47' E 005°33'0 0.0
2015-Jan-21 20:33N 51°47' E 005°33'0 0.0
2015-Jan-21 19:33N 51°47' E 005°33'0 0.0
2015-Jan-21 18:33N 51°47' E 005°33'0 0.0
2015-Jan-21 17:33N 51°47' E 005°33'0 0.0
2015-Jan-21 16:33N 51°47' E 005°33'0 0.2
2015-Jan-21 15:33N 51°47' E 005°33'1 0.7
2015-Jan-21 14:33N 51°48' E 005°33'0 0.0
2015-Jan-21 13:33N 51°48' E 005°33'0 0.0
2015-Jan-21 12:33N 51°48' E 005°33'0 0.0
2015-Jan-21 11:33N 51°48' E 005°33'0 0.0
2015-Jan-21 10:33N 51°48' E 005°33'0 0.0
2015-Jan-21 09:33N 51°48' E 005°33'0 0.0
2015-Jan-21 08:33N 51°48' E 005°33'0 0.0
2015-Jan-21 07:33N 51°48' E 005°33'0 0.0
2015-Jan-21 06:33N 51°48' E 005°33'0 0.0
2015-Jan-21 05:33N 51°48' E 005°33'0 0.0
2015-Jan-21 04:33N 51°48' E 005°33'0 0.0
2015-Jan-21 03:33N 51°48' E 005°33'0 0.0
2015-Jan-21 02:33N 51°48' E 005°33'0 0.0
2015-Jan-21 01:33N 51°48' E 005°33'0 0.0
2015-Jan-21 00:33N 51°48' E 005°33'  
Track history (hours):
 
Tides and Currents Weather Stations Pressure Air Temp Water Temp Dewpoint Dewpoint Depression Visibility Wind Speed Wind Dir Waves Ship Positions

Audrey

Last reported at 2015-Jan-31 00:10 UTC. Time now 2015-Jan-31 08:36 UTC.
Position N 51°50' E 004°27'.

Length 85 m; draft 2.3 m.

Type: Other ship. MMSI: 244660106.

Date/timePositionNaut miles runAvg speedWind from/ knotsBaromVisibWave heightAir tempDewpointWater temp
2015-Jan-31 00:10N 51°50' E 004°27'4 0.1
2015-Jan-28 23:09N 51°54' E 004°25'11620.0
2015-Jan-28 17:22N 50°53' E 007°03'3 3.7
2015-Jan-28 16:32N 50°54' E 006°59'12 4.0
2015-Jan-28 13:28N 51°06' E 006°53'4 4.2
2015-Jan-28 12:33N 51°10' E 006°50'3 2.5
2015-Jan-28 11:34N 51°11' E 006°47'3 3.2
2015-Jan-28 10:34N 51°14' E 006°44'2 2.0
2015-Jan-28 09:33N 51°16' E 006°43'6 3.8
2015-Jan-28 08:03N 51°21' E 006°40'9 3.5
2015-Jan-28 05:23N 51°30' E 006°43'4 4.4
2015-Jan-28 04:29N 51°34' E 006°41'37 2.6
2015-Jan-27 14:22N 51°52' E 005°50'5 6.3
2015-Jan-27 13:33N 51°54' E 005°42'6 6.2
2015-Jan-27 12:34N 51°54' E 005°32'6 5.6
2015-Jan-27 11:34N 51°50' E 005°24'5 4.8
2015-Jan-27 10:33N 51°49' E 005°17'6 6.2
2015-Jan-27 09:34N 51°49' E 005°07'7 7.0
2015-Jan-27 08:33N 51°50' E 004°55'8 8.2
2015-Jan-27 07:34N 51°49' E 004°42'7 7.4
2015-Jan-27 06:33N 51°50' E 004°30'8 7.9
2015-Jan-27 05:34N 51°52' E 004°18'8 7.8
2015-Jan-27 04:33N 51°56' E 004°07'1 1.0
2015-Jan-27 03:33N 51°57' E 004°07'0 0.0
2015-Jan-27 02:33N 51°57' E 004°07'0 0.0
2015-Jan-27 01:34N 51°57' E 004°07'0 0.0
2015-Jan-27 00:34N 51°57' E 004°07'0 0.0
2015-Jan-26 23:34N 51°57' E 004°07'0 0.0
2015-Jan-26 22:34N 51°57' E 004°07'0 0.2
2015-Jan-26 21:34N 51°57' E 004°07'0 0.0
2015-Jan-26 20:34N 51°57' E 004°07'0 0.0
2015-Jan-26 19:34N 51°57' E 004°07'0 0.0
2015-Jan-26 18:34N 51°57' E 004°07'0 0.0
2015-Jan-26 17:34N 51°57' E 004°07'0 0.0
2015-Jan-26 16:33N 51°57' E 004°07'1 1.2
2015-Jan-26 15:33N 51°56' E 004°08'8 7.6
2015-Jan-26 14:32N 51°53' E 004°20'6 6.5
2015-Jan-26 13:33N 51°55' E 004°29'0 0.0
2015-Jan-26 12:33N 51°55' E 004°29'0 0.0
2015-Jan-26 11:34N 51°55' E 004°29'0 0.0
2015-Jan-26 10:33N 51°55' E 004°29'0 0.0
2015-Jan-26 09:33N 51°55' E 004°29'0 0.0
2015-Jan-26 08:33N 51°55' E 004°29'0 0.0
2015-Jan-26 07:33N 51°55' E 004°29'0 0.0
2015-Jan-26 06:34N 51°55' E 004°29'0 0.0
2015-Jan-26 05:32N 51°55' E 004°29'0 0.0
2015-Jan-26 04:33N 51°55' E 004°29'0 0.0
2015-Jan-26 03:33N 51°55' E 004°29'0 0.0
2015-Jan-26 02:34N 51°55' E 004°29'0 0.0
2015-Jan-26 01:33N 51°55' E 004°29'0 0.0
2015-Jan-26 00:33N 51°55' E 004°29'0 0.0
2015-Jan-25 23:33N 51°55' E 004°29'0 0.0
2015-Jan-25 22:34N 51°55' E 004°29'0 0.0
2015-Jan-25 21:33N 51°55' E 004°29'0 0.0
2015-Jan-25 20:33N 51°55' E 004°29'0 0.0
2015-Jan-25 19:34N 51°55' E 004°29'0 0.0
2015-Jan-25 18:34N 51°55' E 004°29'0 0.0
2015-Jan-25 17:33N 51°55' E 004°29'0 0.0
2015-Jan-25 16:34N 51°55' E 004°29'0 0.0
2015-Jan-25 15:34N 51°55' E 004°29'0 0.0
2015-Jan-25 14:33N 51°55' E 004°29'0 0.0
2015-Jan-25 13:33N 51°55' E 004°29'0 0.0
2015-Jan-25 12:33N 51°55' E 004°29'0 0.0
2015-Jan-25 11:34N 51°55' E 004°29'0 0.0
2015-Jan-25 10:34N 51°55' E 004°29'0 0.0
2015-Jan-25 08:33N 51°55' E 004°29'0 0.0
2015-Jan-25 07:33N 51°55' E 004°29'0 0.0
2015-Jan-25 06:33N 51°55' E 004°29'0 0.0
2015-Jan-25 05:33N 51°55' E 004°29'0 0.0
2015-Jan-25 04:33N 51°55' E 004°29'0 0.0
2015-Jan-25 03:32N 51°55' E 004°29'0 0.0
2015-Jan-25 02:33N 51°55' E 004°29'0 0.0
2015-Jan-25 01:33N 51°55' E 004°29'0 0.0
2015-Jan-25 00:34N 51°55' E 004°29'0 0.0
2015-Jan-24 23:33N 51°55' E 004°29'0 0.0
2015-Jan-24 22:34N 51°55' E 004°29'0 0.0
2015-Jan-24 21:33N 51°55' E 004°29'0 0.0
2015-Jan-24 20:33N 51°55' E 004°29'0 0.0
2015-Jan-24 19:33N 51°55' E 004°29'0 0.0
2015-Jan-24 18:33N 51°55' E 004°29'0 0.0
2015-Jan-24 17:33N 51°55' E 004°29'0 0.0
2015-Jan-24 16:33N 51°55' E 004°29'0 0.0
2015-Jan-24 15:33N 51°55' E 004°29'0 0.0
2015-Jan-24 14:33N 51°55' E 004°29'0 0.0
2015-Jan-24 13:33N 51°55' E 004°29'0 0.0
2015-Jan-24 12:34N 51°55' E 004°29'0 0.0
2015-Jan-24 11:33N 51°55' E 004°29'0 0.0
2015-Jan-24 10:34N 51°55' E 004°29'0 0.0
2015-Jan-24 09:33N 51°55' E 004°29'0 0.0
2015-Jan-24 08:33N 51°55' E 004°29'0 0.0
2015-Jan-24 07:33N 51°55' E 004°29'0 0.0
2015-Jan-24 06:33N 51°55' E 004°29'0 0.0
2015-Jan-24 05:34N 51°55' E 004°29'0 0.0
2015-Jan-24 04:34N 51°55' E 004°29'0 0.0
2015-Jan-24 03:33N 51°55' E 004°29'0 0.0
2015-Jan-24 02:34N 51°55' E 004°29'0 0.0
2015-Jan-24 01:33N 51°55' E 004°29'0 0.0
2015-Jan-24 00:33N 51°55' E 004°29'0 0.0
2015-Jan-23 23:33N 51°55' E 004°29'0 0.0
2015-Jan-23 22:33N 51°55' E 004°29'0 0.0
2015-Jan-23 21:33N 51°55' E 004°29'0 0.0
2015-Jan-23 20:33N 51°55' E 004°29'0 0.0
2015-Jan-23 19:33N 51°55' E 004°29'0 0.0
2015-Jan-23 18:33N 51°55' E 004°29'0 0.0
2015-Jan-23 17:33N 51°55' E 004°29'0 0.0
2015-Jan-23 16:33N 51°55' E 004°29'0 0.0
2015-Jan-23 15:34N 51°55' E 004°29'0 0.0
2015-Jan-23 14:34N 51°55' E 004°29'0 0.0
2015-Jan-23 13:34N 51°55' E 004°29'0 0.0
2015-Jan-23 12:33N 51°55' E 004°29'0 0.0
2015-Jan-23 11:33N 51°55' E 004°29'0 0.0
2015-Jan-23 10:33N 51°55' E 004°29'0 0.0
2015-Jan-23 09:33N 51°55' E 004°29'0 0.0
2015-Jan-23 08:33N 51°55' E 004°29'0 0.0
2015-Jan-23 07:34N 51°55' E 004°29'0 0.0
2015-Jan-23 06:33N 51°55' E 004°29'0 0.0
2015-Jan-23 05:33N 51°55' E 004°29'0 0.0
2015-Jan-23 04:33N 51°55' E 004°29'0 0.0
2015-Jan-23 03:33N 51°55' E 004°29'0 0.0
2015-Jan-23 02:33N 51°55' E 004°29'0 0.0
2015-Jan-23 01:33N 51°55' E 004°29'0 0.0
2015-Jan-23 00:33N 51°55' E 004°29'0 0.0
2015-Jan-22 23:34N 51°55' E 004°29'0 0.0
2015-Jan-22 22:33N 51°55' E 004°29'0 0.0
2015-Jan-22 21:33N 51°55' E 004°29'0 0.0
2015-Jan-22 20:33N 51°55' E 004°29'0 0.0
2015-Jan-22 19:33N 51°55' E 004°29'0 0.0
2015-Jan-22 18:33N 51°55' E 004°29'0 0.0
2015-Jan-22 17:33N 51°55' E 004°29'0 0.0
2015-Jan-22 16:33N 51°55' E 004°29'5 5.2
2015-Jan-22 15:34N 51°53' E 004°37'4 4.4
2015-Jan-22 14:33N 51°49' E 004°40'2 1.9
2015-Jan-22 13:33N 51°48' E 004°37'8 7.9
2015-Jan-22 12:33N 51°43' E 004°48'1110.6
2015-Jan-22 11:33N 51°43' E 005°05'9 8.8
2015-Jan-22 10:33N 51°45' E 005°19'7 6.5
2015-Jan-22 09:33N 51°49' E 005°27'3 3.5
2015-Jan-22 08:32N 51°47' E 005°33'0 0.0
2015-Jan-22 07:33N 51°47' E 005°33'0 0.0
2015-Jan-22 06:33N 51°47' E 005°33'0 0.0
2015-Jan-22 05:33N 51°47' E 005°33'0 0.0
2015-Jan-22 04:33N 51°47' E 005°33'0 0.0
2015-Jan-22 03:33N 51°47' E 005°33'0 0.0
2015-Jan-22 02:33N 51°47' E 005°33'0 0.0
2015-Jan-22 01:33N 51°47' E 005°33'0 0.0
2015-Jan-22 00:33N 51°47' E 005°33'0 0.0
2015-Jan-21 23:33N 51°47' E 005°33'0 0.0
2015-Jan-21 22:50N 51°47' E 005°33'0 0.0
2015-Jan-21 22:46N 51°47' E 005°33'0 0.0
2015-Jan-21 22:33N 51°47' E 005°33'0 0.0
2015-Jan-21 21:33N 51°47' E 005°33'0 0.0
2015-Jan-21 20:33N 51°47' E 005°33'0 0.0
2015-Jan-21 19:33N 51°47' E 005°33'0 0.0
2015-Jan-21 18:33N 51°47' E 005°33'0 0.0
2015-Jan-21 17:33N 51°47' E 005°33'0 0.0
2015-Jan-21 16:33N 51°47' E 005°33'0 0.2
2015-Jan-21 15:33N 51°47' E 005°33'1 0.7
2015-Jan-21 14:33N 51°48' E 005°33'0 0.0
2015-Jan-21 13:33N 51°48' E 005°33'0 0.0
2015-Jan-21 12:33N 51°48' E 005°33'0 0.0
2015-Jan-21 11:33N 51°48' E 005°33'0 0.0
2015-Jan-21 10:33N 51°48' E 005°33'0 0.0
2015-Jan-21 09:33N 51°48' E 005°33'0 0.0
2015-Jan-21 08:33N 51°48' E 005°33'0 0.0
2015-Jan-21 07:33N 51°48' E 005°33'0 0.0
2015-Jan-21 06:33N 51°48' E 005°33'0 0.0
2015-Jan-21 05:33N 51°48' E 005°33'0 0.0
2015-Jan-21 04:33N 51°48' E 005°33'0 0.0
2015-Jan-21 03:33N 51°48' E 005°33'0 0.0
2015-Jan-21 02:33N 51°48' E 005°33'0 0.0
2015-Jan-21 01:33N 51°48' E 005°33'0 0.0
2015-Jan-21 00:33N 51°48' E 005°33'  

Dump ship's entire track history